Map

Track Data

SID SEASON NUMBER BASIN SUBBASIN NAME ISO_TIME NATURE LAT LON WMO_WIND WMO_PRES WMO_AGENCY TRACK_TYPE DIST2LAND LANDFALL IFLAG USA_AGENCY USA_ATCF_ID USA_LAT USA_LON USA_RECORD USA_STATUS USA_WIND USA_PRES USA_SSHS USA_R34_NE USA_R34_SE USA_R34_SW USA_R34_NW USA_R50_NE USA_R50_SE USA_R50_SW USA_R50_NW USA_R64_NE USA_R64_SE USA_R64_SW USA_R64_NW USA_POCI USA_ROCI USA_RMW USA_EYE TOKYO_LAT TOKYO_LON TOKYO_GRADE TOKYO_WIND TOKYO_PRES TOKYO_R50_DIR TOKYO_R50_LONG TOKYO_R50_SHORT TOKYO_R30_DIR TOKYO_R30_LONG TOKYO_R30_SHORT TOKYO_LAND CMA_LAT CMA_LON CMA_CAT CMA_WIND CMA_PRES HKO_LAT HKO_LON HKO_CAT HKO_WIND HKO_PRES NEWDELHI_LAT NEWDELHI_LON NEWDELHI_GRADE NEWDELHI_WIND NEWDELHI_PRES NEWDELHI_CI NEWDELHI_DP NEWDELHI_POCI REUNION_LAT REUNION_LON REUNION_TYPE REUNION_WIND REUNION_PRES REUNION_TNUM REUNION_CI REUNION_RMW REUNION_R34_NE REUNION_R34_SE REUNION_R34_SW REUNION_R34_NW REUNION_R50_NE REUNION_R50_SE REUNION_R50_SW REUNION_R50_NW REUNION_R64_NE REUNION_R64_SE REUNION_R64_SW REUNION_R64_NW BOM_LAT BOM_LON BOM_TYPE BOM_WIND BOM_PRES BOM_TNUM BOM_CI BOM_RMW BOM_R34_NE BOM_R34_SE BOM_R34_SW BOM_R34_NW BOM_R50_NE BOM_R50_SE BOM_R50_SW BOM_R50_NW BOM_R64_NE BOM_R64_SE BOM_R64_SW BOM_R64_NW BOM_ROCI BOM_POCI BOM_EYE BOM_POS_METHOD BOM_PRES_METHOD NADI_LAT NADI_LON NADI_CAT NADI_WIND NADI_PRES WELLINGTON_LAT WELLINGTON_LON WELLINGTON_WIND WELLINGTON_PRES DS824_LAT DS824_LON DS824_STAGE DS824_WIND DS824_PRES TD9636_LAT TD9636_LON TD9636_STAGE TD9636_WIND TD9636_PRES TD9635_LAT TD9635_LON TD9635_WIND TD9635_PRES TD9635_ROCI NEUMANN_LAT NEUMANN_LON NEUMANN_CLASS NEUMANN_WIND NEUMANN_PRES MLC_LAT MLC_LON MLC_CLASS MLC_WIND MLC_PRES USA_GUST BOM_GUST BOM_GUST_PER REUNION_GUST REUNION_GUST_PER USA_SEAHGT USA_SEARAD_NE USA_SEARAD_SE USA_SEARAD_SW USA_SEARAD_NW STORM_SPEED STORM_DIR
1944313N14135 1944 79 WP MM NOT_NAMED 1944-11-07 12:00:00 NR 13.8000 135.000 main 1045 874 __________O___ -1 13.8000 135.000 3 33 272
1944313N14135 1944 79 WP MM NOT_NAMED 1944-11-07 15:00:00 NR 13.8480 133.320 main 864 708 __________P___ -1 13.8480 133.320 3 32 271
1944313N14135 1944 79 WP MM NOT_NAMED 1944-11-07 18:00:00 NR 13.8819 131.661 main 698 533 __________P___ -1 13.8819 131.661 3 32 271
1944313N14135 1944 79 WP MM NOT_NAMED 1944-11-07 21:00:00 NR 13.8998 130.047 main 523 386 __________P___ -1 13.8998 130.047 3 31 270
1944313N14135 1944 79 WP MM NOT_NAMED 1944-11-08 00:00:00 NR 13.9000 128.500 main 376 257 __________O___ -1 13.9000 128.500 4 29 270
1944313N14135 1944 79 WP MM NOT_NAMED 1944-11-08 03:00:00 NR 13.8925 127.042 main 249 151 __________P___ -1 13.8925 127.042 4 27 271
1944313N14135 1944 79 WP MM NOT_NAMED 1944-11-08 06:00:00 NR 13.9304 125.693 main 140 24 __________P___ -1 13.9304 125.693 4 25 274
1944313N14135 1944 79 WP MM NOT_NAMED 1944-11-08 09:00:00 NR 14.0781 124.472 main 24 11 __________P___ -1 14.0781 124.472 4 23 282
1944313N14135 1944 79 WP MM NOT_NAMED 1944-11-08 12:00:00 NR 14.4000 123.400 main 46 39 __________O___ -1 14.4000 123.400 4 23 295
1944313N14135 1944 79 WP MM NOT_NAMED 1944-11-08 15:00:00 NR 15.0458 122.314 main 72 0 __________P___ -1 15.0458 122.314 4 24 307
1944313N14135 1944 79 WP MM NOT_NAMED 1944-11-08 18:00:00 NR 15.8532 121.387 main 0 0 __________P___ -1 15.8532 121.387 4 23 316
1944313N14135 1944 79 WP MM NOT_NAMED 1944-11-08 21:00:00 NR 16.6840 120.691 main 0 0 __________P___ -1 16.6840 120.691 4 19 326
1944313N14135 1944 79 WP MM NOT_NAMED 1944-11-09 00:00:00 NR 17.4000 120.300 main 15 0 __________O___ -1 17.4000 120.300 4 12 341
1944313N14135 1944 79 WP MM NOT_NAMED 1944-11-09 03:00:00 NR 17.7898 120.299 main 15 0 __________P___ -1 17.7898 120.299 4 7 23
1944313N14135 1944 79 WP MM NOT_NAMED 1944-11-09 06:00:00 NR 18.0540 120.596 main 0 0 __________P___ -1 18.0540 120.596 4 9 56
1944313N14135 1944 79 WP MM NOT_NAMED 1944-11-09 09:00:00 NR 18.2660 121.045 main 0 0 __________P___ -1 18.2660 121.045 4 10 63
1944313N14135 1944 79 WP MM NOT_NAMED 1944-11-09 12:00:00 NR 18.5000 121.500 main 10 10 __________O___ -1 18.5000 121.500 4 9 48
1944313N14135 1944 79 WP MM NOT_NAMED 1944-11-09 15:00:00 NR 18.8350 121.707 main 45 45 __________P___ -1 18.8350 121.707 4 8 28
1944313N14135 1944 79 WP MM NOT_NAMED 1944-11-09 18:00:00 NR 19.2090 121.900 main 91 91 __________P___ -1 19.2090 121.900 4 9 26
1944313N14135 1944 79 WP MM NOT_NAMED 1944-11-09 21:00:00 NR 19.6286 122.117 main 134 134 __________P___ -1 19.6286 122.117 4 10 28
1944313N14135 1944 79 WP MM NOT_NAMED 1944-11-10 00:00:00 NR 20.1000 122.400 main 190 190 __________O___ -1 20.1000 122.400 4 12 32
1944313N14135 1944 79 WP MM NOT_NAMED 1944-11-10 03:00:00 NR 20.6576 122.802 main 238 238 __________P___ -1 20.6576 122.802 4 14 35
1944313N14135 1944 79 WP MM NOT_NAMED 1944-11-10 06:00:00 NR 21.2580 123.273 main 256 256 __________P___ -1 21.2580 123.273 4 15 37
1944313N14135 1944 79 WP MM NOT_NAMED 1944-11-10 09:00:00 NR 21.8544 123.783 main 280 280 __________P___ -1 21.8544 123.783 4 15 40
1944313N14135 1944 79 WP MM NOT_NAMED 1944-11-10 12:00:00 NR 22.4000 124.300 main 307 304 __________O___ -1 22.4000 124.300 4 12 41
1944313N14135 1944 79 WP MM NOT_NAMED 1944-11-10 15:00:00 NR 22.7921 124.664 main 339 336 __________P___ -1 22.7921 124.664 4 10 43
1944313N14135 1944 79 WP MM NOT_NAMED 1944-11-10 18:00:00 NR 23.1360 125.042 main 351 351 __________P___ -1 23.1360 125.042 4 11 49
1944313N14135 1944 79 WP MM NOT_NAMED 1944-11-10 21:00:00 NR 23.4873 125.525 main 382 382 __________P___ -1 23.4873 125.525 4 13 54
1944313N14135 1944 79 WP MM NOT_NAMED 1944-11-11 00:00:00 NR 23.9000 126.200 main 440 440 __________O___ -1 23.9000 126.200 4 18 57
1944313N14135 1944 79 WP MM NOT_NAMED 1944-11-11 03:00:00 NR 24.4743 127.171 main 527 527 __________P___ -1 24.4743 127.171 4 23 58
1944313N14135 1944 79 WP MM NOT_NAMED 1944-11-11 06:00:00 NR 25.1031 128.347 main 634 601 __________P___ -1 25.1031 128.347 4 26 61
1944313N14135 1944 79 WP MM NOT_NAMED 1944-11-11 09:00:00 NR 25.7297 129.650 main 601 525 __________P___ -1 25.7297 129.650 4 27 63
1944313N14135 1944 79 WP MM NOT_NAMED 1944-11-11 12:00:00 NR 26.3000 131.000 main 525 493 __________O___ -1 26.3000 131.000 4 26 66
1944313N14135 1944 79 WP MM NOT_NAMED 1944-11-11 15:00:00 NR 26.7751 132.329 main 493 493 __________P___ -1 26.7751 132.329 4 25 70
1944313N14135 1944 79 WP MM NOT_NAMED 1944-11-11 18:00:00 NR 27.1675 133.632 main 508 508 __________P___ -1 27.1675 133.632 4 24 73
1944313N14135 1944 79 WP MM NOT_NAMED 1944-11-11 21:00:00 NR 27.5012 134.919 main 551 551 __________P___ -1 27.5012 134.919 4 24 74
1944313N14135 1944 79 WP MM NOT_NAMED 1944-11-12 00:00:00 NR 27.8000 136.200 main 613 __________O___ -1 27.8000 136.200 4 23 75

Digital Typhoon Data and Search

About IBTrACS Database

This database is a web-friendly format of International Best Track Archive for Climate Stewardship (IBTrACS), a global best track data archive curated by NOAA dating back to 1842.

Updated: 2021-10-21